createdAt,value
2019-03-10T00:00:43.393Z,1005.15
2019-03-10T00:01:43.493Z,1005.11
2019-03-10T00:02:43.724Z,1005.10
2019-03-10T00:03:43.925Z,1005.24
2019-03-10T00:04:44.127Z,1005.17
2019-03-10T00:05:44.260Z,1005.03
2019-03-10T00:06:44.481Z,1005.08
2019-03-10T00:07:44.687Z,1005.10
2019-03-10T00:08:44.852Z,1005.03
2019-03-10T00:10:44.986Z,1005.03
2019-03-10T00:11:45.174Z,1004.94
2019-03-10T00:12:45.293Z,1004.94
2019-03-10T00:13:45.450Z,1004.96
2019-03-10T00:14:45.686Z,1004.98
2019-03-10T00:15:46.024Z,1005.06
2019-03-10T00:16:46.313Z,1005.00
2019-03-10T00:17:46.719Z,1005.00
2019-03-10T00:18:46.896Z,1005.00
2019-03-10T00:19:47.125Z,1004.93
2019-03-10T00:20:47.260Z,1004.95
2019-03-10T00:21:47.410Z,1005.01
2019-03-10T00:22:47.502Z,1004.92
2019-03-10T00:23:47.583Z,1004.99
2019-03-10T00:24:47.655Z,1004.87
2019-03-10T00:25:47.791Z,1004.87
2019-03-10T00:26:47.940Z,1004.88
2019-03-10T00:27:47.984Z,1004.92
2019-03-10T00:28:48.064Z,1004.91
2019-03-10T00:29:48.196Z,1004.87
2019-03-10T00:30:48.309Z,1004.98
2019-03-10T00:31:48.399Z,1004.97
2019-03-10T00:32:48.515Z,1004.93
2019-03-10T00:33:48.631Z,1004.90
2019-03-10T00:34:48.733Z,1004.96
2019-03-10T00:35:48.894Z,1004.98
2019-03-10T00:36:48.945Z,1004.86
2019-03-10T00:37:49.112Z,1004.96
2019-03-10T00:38:49.223Z,1004.98
2019-03-10T00:39:49.671Z,1004.94
2019-03-10T00:40:50.083Z,1004.97
2019-03-10T00:41:50.457Z,1004.91
2019-03-10T00:42:50.724Z,1004.98
2019-03-10T00:43:50.934Z,1004.94
2019-03-10T00:44:51.415Z,1004.91
2019-03-10T00:45:51.872Z,1004.85
2019-03-10T00:46:52.051Z,1004.79
2019-03-10T00:47:52.551Z,1004.77
2019-03-10T00:48:52.973Z,1004.79
2019-03-10T00:49:52.930Z,1004.78
2019-03-10T00:50:53.043Z,1004.73
2019-03-10T00:51:53.210Z,1004.73
2019-03-10T00:52:53.378Z,1004.66
2019-03-10T00:53:53.464Z,1004.72
2019-03-10T00:54:53.657Z,1004.68
2019-03-10T00:55:53.817Z,1004.59
2019-03-10T00:56:53.974Z,1004.71
2019-03-10T00:57:54.097Z,1004.60
2019-03-10T00:58:54.171Z,1004.64
2019-03-10T00:59:54.375Z,1004.64
2019-03-10T01:00:54.618Z,1004.60
2019-03-10T01:01:54.844Z,1004.59
2019-03-10T01:02:54.957Z,1004.63
2019-03-10T01:03:55.170Z,1004.59
2019-03-10T01:04:55.350Z,1004.52
2019-03-10T01:05:55.445Z,1004.52
2019-03-10T01:06:55.579Z,1004.52
2019-03-10T01:07:55.769Z,1004.55
2019-03-10T01:08:55.934Z,1004.48
2019-03-10T01:10:56.116Z,1004.51
2019-03-10T01:11:56.305Z,1004.45
2019-03-10T01:12:56.395Z,1004.50
2019-03-10T01:13:56.571Z,1004.43
2019-03-10T01:14:56.719Z,1004.52
2019-03-10T01:15:56.791Z,1004.38
2019-03-10T01:16:56.997Z,1004.45
2019-03-10T01:17:57.122Z,1004.32
2019-03-10T01:18:57.229Z,1004.35
2019-03-10T01:19:57.485Z,1004.41
2019-03-10T01:20:57.687Z,1004.41
2019-03-10T01:21:57.839Z,1004.36
2019-03-10T01:22:58.012Z,1004.40
2019-03-10T01:23:58.286Z,1004.37
2019-03-10T01:24:58.514Z,1004.41
2019-03-10T01:25:58.716Z,1004.33
2019-03-10T01:26:58.866Z,1004.35
2019-03-10T01:27:58.993Z,1004.42
2019-03-10T01:28:59.204Z,1004.31
2019-03-10T01:29:59.432Z,1004.40
2019-03-10T01:30:59.648Z,1004.33
2019-03-10T01:32:00.168Z,1004.44
2019-03-10T01:33:00.170Z,1004.37
2019-03-10T01:34:00.721Z,1004.35
2019-03-10T01:36:01.058Z,1004.32
2019-03-10T01:37:01.328Z,1004.34
2019-03-10T01:38:01.670Z,1004.27
2019-03-10T01:39:02.525Z,1004.41
2019-03-10T01:40:02.163Z,1004.34
2019-03-10T01:41:02.365Z,1004.39
2019-03-10T01:42:02.523Z,1004.38
2019-03-10T01:43:02.682Z,1004.31
2019-03-10T01:44:02.787Z,1004.24
2019-03-10T01:45:03.067Z,1004.21
2019-03-10T01:46:02.941Z,1004.22
2019-03-10T01:47:03.264Z,1004.21
2019-03-10T01:48:03.392Z,1004.10
2019-03-10T01:49:03.507Z,1004.05
2019-03-10T01:50:03.711Z,1004.04
2019-03-10T01:51:04.001Z,1003.91
2019-03-10T01:52:04.037Z,1003.96
2019-03-10T01:53:04.195Z,1003.92
2019-03-10T01:54:04.301Z,1003.82
2019-03-10T01:55:04.366Z,1003.74
2019-03-10T01:56:04.570Z,1003.72
2019-03-10T01:57:04.689Z,1003.71
2019-03-10T01:58:04.855Z,1003.71
2019-03-10T01:59:04.963Z,1003.61
2019-03-10T02:00:05.084Z,1003.63
2019-03-10T02:01:05.334Z,1003.68
2019-03-10T02:02:05.519Z,1003.66
2019-03-10T02:03:05.679Z,1003.58
2019-03-10T02:04:05.797Z,1003.53
2019-03-10T02:05:06.058Z,1003.49
2019-03-10T02:06:06.398Z,1003.33
2019-03-10T02:07:06.541Z,1003.33
2019-03-10T02:08:06.673Z,1003.35
2019-03-10T02:09:06.754Z,1003.30
2019-03-10T02:10:06.957Z,1003.27
2019-03-10T02:11:07.383Z,1003.27
2019-03-10T02:12:07.498Z,1003.20
2019-03-10T02:13:07.689Z,1003.15
2019-03-10T02:14:07.873Z,1003.09
2019-03-10T02:15:08.038Z,1002.99
2019-03-10T02:16:08.290Z,1003.07
2019-03-10T02:17:08.451Z,1002.98
2019-03-10T02:18:08.540Z,1003.00
2019-03-10T02:19:08.718Z,1002.83
2019-03-10T02:20:08.885Z,1002.83
2019-03-10T02:21:08.897Z,1002.87
2019-03-10T02:22:09.064Z,1002.94
2019-03-10T02:23:09.242Z,1002.84
2019-03-10T02:24:09.367Z,1002.76
2019-03-10T02:25:09.563Z,1002.79
2019-03-10T02:26:09.864Z,1002.70
2019-03-10T02:27:10.032Z,1002.69
2019-03-10T02:28:10.197Z,1002.74
2019-03-10T02:29:10.373Z,1002.61
2019-03-10T02:30:10.526Z,1002.67
2019-03-10T02:31:10.893Z,1002.64
2019-03-10T02:32:11.051Z,1002.60
2019-03-10T02:33:11.255Z,1002.60
2019-03-10T02:34:11.426Z,1002.55
2019-03-10T02:35:11.534Z,1002.52
2019-03-10T02:36:11.612Z,1002.50
2019-03-10T02:37:11.809Z,1002.40
2019-03-10T02:38:11.919Z,1002.44
2019-03-10T02:39:12.113Z,1002.44
2019-03-10T02:40:12.219Z,1002.47
2019-03-10T02:41:12.370Z,1002.51
2019-03-10T02:42:12.475Z,1002.45
2019-03-10T02:43:12.634Z,1002.42
2019-03-10T02:44:12.822Z,1002.36
2019-03-10T02:45:13.128Z,1002.19
2019-03-10T02:46:13.325Z,1002.24
2019-03-10T02:47:13.541Z,1002.10
2019-03-10T02:48:13.787Z,1002.04
2019-03-10T02:49:13.998Z,1001.96
2019-03-10T02:50:14.149Z,1001.95
2019-03-10T02:51:14.355Z,1001.81
2019-03-10T02:52:14.546Z,1001.73
2019-03-10T02:53:14.724Z,1001.68
2019-03-10T02:54:14.802Z,1001.57
2019-03-10T02:55:15.015Z,1001.55
2019-03-10T02:56:15.215Z,1001.63
2019-03-10T02:57:15.444Z,1001.53
2019-03-10T02:58:15.672Z,1001.57
2019-03-10T02:59:15.823Z,1001.53
2019-03-10T03:00:16.162Z,1001.58
2019-03-10T03:01:16.442Z,1001.62
2019-03-10T03:02:16.588Z,1001.70
2019-03-10T03:03:16.724Z,1001.74
2019-03-10T03:04:16.988Z,1001.71
2019-03-10T03:05:17.144Z,1001.78
2019-03-10T03:06:17.389Z,1001.74
2019-03-10T03:07:17.502Z,1001.68
2019-03-10T03:08:17.693Z,1001.66
2019-03-10T03:09:17.850Z,1001.70
2019-03-10T03:10:17.953Z,1001.68
2019-03-10T03:11:18.059Z,1001.65
2019-03-10T03:12:18.184Z,1001.70
2019-03-10T03:13:18.280Z,1001.67
2019-03-10T03:14:18.369Z,1001.66
2019-03-10T03:15:18.495Z,1001.67
2019-03-10T03:16:18.608Z,1001.58
2019-03-10T03:17:18.726Z,1001.55
2019-03-10T03:18:18.787Z,1001.62
2019-03-10T03:19:18.886Z,1001.55
2019-03-10T03:20:19.045Z,1001.57
2019-03-10T03:21:19.147Z,1001.54
2019-03-10T03:22:19.217Z,1001.52
2019-03-10T03:23:19.366Z,1001.52
2019-03-10T03:24:19.436Z,1001.47
2019-03-10T03:25:19.517Z,1001.50
2019-03-10T03:26:19.645Z,1001.39
2019-03-10T03:27:19.758Z,1001.36
2019-03-10T03:28:19.916Z,1001.30
2019-03-10T03:29:19.990Z,1001.16
2019-03-10T03:30:20.045Z,1001.29
2019-03-10T03:31:20.203Z,1001.24
2019-03-10T03:32:20.342Z,1001.18
2019-03-10T03:33:20.541Z,1001.08
2019-03-10T03:34:20.757Z,1001.10
2019-03-10T03:35:21.004Z,1001.17
2019-03-10T03:36:21.021Z,1001.14
2019-03-10T03:37:21.257Z,1001.12
2019-03-10T03:38:21.766Z,1001.15
2019-03-10T03:39:22.102Z,1001.26
2019-03-10T03:40:22.463Z,1001.33
2019-03-10T03:41:22.650Z,1001.22
2019-03-10T03:42:22.875Z,1001.29
2019-03-10T03:43:23.118Z,1001.18
2019-03-10T03:44:23.287Z,1001.19
2019-03-10T03:45:23.493Z,1001.17
2019-03-10T03:46:23.662Z,1001.06
2019-03-10T03:47:23.844Z,1001.06
2019-03-10T03:48:24.045Z,1001.04
2019-03-10T03:49:24.301Z,1001.09
2019-03-10T03:50:24.516Z,1001.05
2019-03-10T03:51:24.716Z,1000.97
2019-03-10T03:53:24.923Z,1000.97
2019-03-10T03:54:25.063Z,1000.83
2019-03-10T03:55:25.135Z,1000.84
2019-03-10T03:56:25.423Z,1000.75
2019-03-10T03:57:25.595Z,1000.75
2019-03-10T03:58:25.790Z,1000.67
2019-03-10T03:59:26.042Z,1000.68
2019-03-10T04:00:26.164Z,1000.58
2019-03-10T04:01:26.410Z,1000.51
2019-03-10T04:02:26.397Z,1000.48
2019-03-10T04:03:26.661Z,1000.45
2019-03-10T04:04:26.810Z,1000.37
2019-03-10T04:05:27.032Z,1000.34
2019-03-10T04:06:27.149Z,1000.17
2019-03-10T04:07:27.281Z,1000.20
2019-03-10T04:08:27.505Z,1000.16
2019-03-10T04:09:27.669Z,1000.13
2019-03-10T04:10:27.795Z,1000.12
2019-03-10T04:11:27.937Z,999.97
2019-03-10T04:12:28.017Z,1000.02
2019-03-10T04:13:28.135Z,999.98
2019-03-10T04:14:28.325Z,1000.00
2019-03-10T04:15:28.514Z,999.89
2019-03-10T04:16:28.701Z,999.86
2019-03-10T04:17:28.900Z,999.87
2019-03-10T04:18:29.188Z,999.80
2019-03-10T04:19:29.527Z,999.76
2019-03-10T04:20:29.686Z,999.76
2019-03-10T04:21:29.950Z,999.73
2019-03-10T04:22:30.177Z,999.71
2019-03-10T04:23:30.321Z,999.68
2019-03-10T04:24:30.485Z,999.71
2019-03-10T04:25:30.747Z,999.62
2019-03-10T04:26:30.989Z,999.59
2019-03-10T04:27:31.201Z,999.59
2019-03-10T04:28:31.409Z,999.64
2019-03-10T04:29:31.684Z,999.50
2019-03-10T04:30:31.755Z,999.41
2019-03-10T04:31:31.901Z,999.47
2019-03-10T04:32:32.080Z,999.42
2019-03-10T04:33:32.294Z,999.44
2019-03-10T04:34:32.160Z,999.43
2019-03-10T04:35:32.763Z,999.37
2019-03-10T04:36:32.890Z,999.40
2019-03-10T04:37:33.105Z,999.37
2019-03-10T04:38:33.223Z,999.40
2019-03-10T04:39:33.308Z,999.29
2019-03-10T04:40:33.432Z,999.30
2019-03-10T04:41:33.535Z,999.21
2019-03-10T04:42:33.808Z,999.21
2019-03-10T04:43:33.861Z,999.24
2019-03-10T04:44:36.140Z,999.23
2019-03-10T04:45:34.041Z,999.21
2019-03-10T04:46:34.091Z,999.12
2019-03-10T04:47:34.218Z,999.16
2019-03-10T04:48:34.333Z,999.05
2019-03-10T04:49:34.511Z,998.97
2019-03-10T04:50:34.561Z,998.98
2019-03-10T04:51:34.606Z,998.96
2019-03-10T04:52:34.691Z,998.86
2019-03-10T04:53:34.835Z,998.90
2019-03-10T04:54:34.919Z,998.90
2019-03-10T04:55:35.235Z,998.83
2019-03-10T04:56:35.646Z,998.73
2019-03-10T04:57:35.696Z,998.70
2019-03-10T04:58:35.826Z,998.66
2019-03-10T04:59:36.438Z,998.74
2019-03-10T05:00:36.596Z,998.65
2019-03-10T05:01:36.926Z,998.73
2019-03-10T05:02:37.118Z,998.69
2019-03-10T05:03:37.166Z,998.66
2019-03-10T05:04:37.646Z,998.62
2019-03-10T05:05:37.364Z,998.60
2019-03-10T05:06:37.555Z,998.63
2019-03-10T05:07:37.680Z,998.64
2019-03-10T05:08:37.855Z,998.60
2019-03-10T05:09:38.157Z,998.60
2019-03-10T05:10:38.322Z,998.54
2019-03-10T05:11:38.637Z,998.50
2019-03-10T05:12:38.967Z,998.52
2019-03-10T05:13:39.162Z,998.49
2019-03-10T05:14:39.443Z,998.44
2019-03-10T05:15:39.625Z,998.48
2019-03-10T05:16:39.814Z,998.56
2019-03-10T05:17:40.033Z,998.52
2019-03-10T05:18:40.358Z,998.46
2019-03-10T05:19:40.592Z,998.35
2019-03-10T05:20:40.834Z,998.31
2019-03-10T05:21:41.106Z,998.31
2019-03-10T05:22:41.295Z,998.31
2019-03-10T05:23:41.479Z,998.27
2019-03-10T05:24:41.833Z,998.31
2019-03-10T05:25:41.999Z,998.26
2019-03-10T05:26:42.118Z,998.29
2019-03-10T05:27:42.281Z,998.22
2019-03-10T05:28:42.492Z,998.24
2019-03-10T05:29:42.509Z,998.19
2019-03-10T05:30:42.649Z,998.17
2019-03-10T05:31:42.856Z,998.16
2019-03-10T05:32:43.188Z,998.16
2019-03-10T05:33:43.305Z,998.16
2019-03-10T05:34:43.480Z,998.15
2019-03-10T05:35:43.646Z,998.08
2019-03-10T05:36:43.817Z,998.00
2019-03-10T05:37:43.961Z,997.94
2019-03-10T05:38:44.057Z,997.99
2019-03-10T05:39:44.341Z,998.03
2019-03-10T05:40:44.593Z,997.92
2019-03-10T05:41:44.961Z,997.96
2019-03-10T05:42:45.066Z,997.85
2019-03-10T05:43:45.236Z,997.82
2019-03-10T05:44:45.440Z,997.79
2019-03-10T05:45:45.755Z,997.75
2019-03-10T05:46:46.069Z,997.77
2019-03-10T05:47:46.398Z,997.72
2019-03-10T05:48:46.501Z,997.65
2019-03-10T05:49:46.728Z,997.67
2019-03-10T05:50:46.948Z,997.57
2019-03-10T05:51:47.188Z,997.55
2019-03-10T05:52:47.418Z,997.53
2019-03-10T05:53:47.584Z,997.53
2019-03-10T05:54:47.708Z,997.51
2019-03-10T05:55:47.884Z,997.36
2019-03-10T05:56:48.061Z,997.38
2019-03-10T05:57:48.174Z,997.28
2019-03-10T05:58:48.400Z,997.11
2019-03-10T05:59:48.486Z,997.23
2019-03-10T06:00:48.754Z,997.13
2019-03-10T06:01:49.013Z,997.12
2019-03-10T06:02:49.076Z,997.09
2019-03-10T06:03:49.186Z,997.09
2019-03-10T06:04:49.230Z,997.04
2019-03-10T06:05:49.392Z,997.10
2019-03-10T06:06:49.500Z,997.16
2019-03-10T06:07:49.558Z,997.04
2019-03-10T06:08:49.773Z,997.04
2019-03-10T06:09:49.838Z,997.07
2019-03-10T06:10:50.065Z,997.04
2019-03-10T06:11:50.208Z,996.91
2019-03-10T06:12:50.438Z,996.95
2019-03-10T06:13:50.672Z,996.84
2019-03-10T06:14:50.855Z,996.72
2019-03-10T06:15:51.083Z,996.83
2019-03-10T06:16:51.326Z,996.75
2019-03-10T06:17:51.569Z,996.61
2019-03-10T06:18:51.779Z,996.60
2019-03-10T06:19:52.060Z,996.60
2019-03-10T06:20:52.356Z,996.57
2019-03-10T06:21:52.585Z,996.53
2019-03-10T06:22:52.747Z,996.50
2019-03-10T06:23:53.022Z,996.51
2019-03-10T06:24:53.253Z,996.49
2019-03-10T06:25:53.436Z,996.42
2019-03-10T06:26:53.623Z,996.34
2019-03-10T06:27:53.927Z,996.44
2019-03-10T06:28:54.136Z,996.32
2019-03-10T06:29:54.379Z,996.34
2019-03-10T06:30:56.415Z,996.37
2019-03-10T06:31:54.965Z,996.41
2019-03-10T06:32:55.160Z,996.36
2019-03-10T06:33:55.362Z,996.39
2019-03-10T06:34:55.597Z,996.35
2019-03-10T06:35:55.779Z,996.34
2019-03-10T06:37:55.995Z,996.37
2019-03-10T06:38:56.180Z,996.24
2019-03-10T06:39:56.414Z,996.27
2019-03-10T06:40:56.509Z,996.15
2019-03-10T06:41:56.567Z,996.18
2019-03-10T06:42:56.657Z,996.16
2019-03-10T06:43:56.927Z,996.14
2019-03-10T06:44:57.576Z,996.06
2019-03-10T06:45:57.350Z,996.12
2019-03-10T06:46:57.462Z,996.11
2019-03-10T06:47:57.741Z,995.95
2019-03-10T06:48:58.015Z,995.93
2019-03-10T06:49:58.088Z,995.82
2019-03-10T06:50:58.245Z,995.87
2019-03-10T06:51:58.479Z,995.80
2019-03-10T06:52:58.725Z,995.81
2019-03-10T06:53:58.895Z,995.80
2019-03-10T06:54:59.081Z,995.76
2019-03-10T06:55:59.359Z,995.74
2019-03-10T06:56:59.624Z,995.68
2019-03-10T06:57:59.786Z,995.64
2019-03-10T06:59:00.015Z,995.64
2019-03-10T07:00:00.003Z,995.58
2019-03-10T07:01:00.211Z,995.53
2019-03-10T07:02:00.354Z,995.53
2019-03-10T07:03:00.699Z,995.53
2019-03-10T07:04:01.081Z,995.49
2019-03-10T07:05:01.630Z,995.49
2019-03-10T07:06:01.896Z,995.41
2019-03-10T07:07:01.768Z,995.42
2019-03-10T07:08:02.103Z,995.41
2019-03-10T07:09:02.370Z,995.35
2019-03-10T07:10:02.632Z,995.35
2019-03-10T07:11:02.865Z,995.36
2019-03-10T07:12:03.011Z,995.17
2019-03-10T07:13:03.170Z,995.32
2019-03-10T07:14:03.408Z,995.32
2019-03-10T07:15:03.823Z,995.23
2019-03-10T07:16:03.849Z,995.24
2019-03-10T07:17:03.974Z,995.26
2019-03-10T07:18:04.096Z,995.20
2019-03-10T07:19:04.167Z,995.21
2019-03-10T07:20:04.283Z,995.17
2019-03-10T07:22:04.519Z,995.26
2019-03-10T07:23:04.653Z,995.14
2019-03-10T07:24:04.993Z,995.14
2019-03-10T07:25:05.150Z,995.16
2019-03-10T07:26:05.265Z,995.08
2019-03-10T07:27:05.385Z,995.07
2019-03-10T07:28:05.612Z,995.08
2019-03-10T07:29:05.958Z,995.09
2019-03-10T07:30:06.080Z,995.02
2019-03-10T07:31:06.434Z,995.06
2019-03-10T07:32:08.876Z,995.08
2019-03-10T07:33:07.297Z,995.01
2019-03-10T07:34:07.635Z,995.10
2019-03-10T07:35:08.075Z,995.05
2019-03-10T07:36:08.419Z,995.05
2019-03-10T07:37:08.677Z,995.04
2019-03-10T07:38:09.019Z,995.04
2019-03-10T07:39:09.519Z,995.11
2019-03-10T07:40:09.931Z,994.99
2019-03-10T07:41:09.887Z,995.05
2019-03-10T07:42:10.303Z,994.95
2019-03-10T07:43:10.810Z,994.92
2019-03-10T07:44:10.706Z,994.97
2019-03-10T07:45:11.114Z,995.03
2019-03-10T07:46:11.562Z,994.95
2019-03-10T07:47:11.522Z,994.95
2019-03-10T07:48:11.753Z,995.14
2019-03-10T07:49:12.040Z,995.03
2019-03-10T07:50:12.256Z,995.00
2019-03-10T07:51:12.917Z,994.91
2019-03-10T07:52:20.098Z,995.01
2019-03-10T07:53:13.064Z,994.94
2019-03-10T07:54:13.429Z,994.90
2019-03-10T07:56:13.529Z,994.92
2019-03-10T07:57:13.877Z,994.83
2019-03-10T07:58:13.876Z,994.80
2019-03-10T07:59:14.349Z,994.77
2019-03-10T08:00:14.588Z,994.69
2019-03-10T08:01:14.557Z,994.70
2019-03-10T08:02:14.752Z,994.70
2019-03-10T08:03:14.828Z,994.67
2019-03-10T08:04:14.998Z,994.63
2019-03-10T08:05:15.349Z,994.58
2019-03-10T08:06:15.254Z,994.51
2019-03-10T08:07:15.404Z,994.49
2019-03-10T08:08:15.870Z,994.41
2019-03-10T08:09:16.507Z,994.44
2019-03-10T08:10:16.850Z,994.45
2019-03-10T08:11:17.122Z,994.46
2019-03-10T08:12:17.290Z,994.46
2019-03-10T08:13:17.567Z,994.46
2019-03-10T08:14:17.805Z,994.46
2019-03-10T08:15:17.828Z,994.45
2019-03-10T08:16:17.869Z,994.46
2019-03-10T08:17:17.877Z,994.44
2019-03-10T08:18:18.029Z,994.42
2019-03-10T08:19:17.911Z,994.40
2019-03-10T08:20:17.891Z,994.33
2019-03-10T08:21:18.240Z,994.33
2019-03-10T08:22:18.622Z,994.32
2019-03-10T08:23:18.865Z,994.29
2019-03-10T08:24:19.489Z,994.28
2019-03-10T08:25:19.693Z,994.26
2019-03-10T08:26:20.164Z,994.24
2019-03-10T08:27:19.894Z,994.10
2019-03-10T08:28:20.584Z,994.11
2019-03-10T08:29:20.915Z,994.11
2019-03-10T08:30:21.429Z,994.09
2019-03-10T08:31:21.481Z,994.09
2019-03-10T08:32:21.500Z,994.07
2019-03-10T08:33:21.399Z,994.07
2019-03-10T08:34:21.764Z,994.08
2019-03-10T08:35:21.909Z,994.08
2019-03-10T08:36:22.344Z,994.08
2019-03-10T08:37:22.926Z,994.09
2019-03-10T08:38:23.040Z,994.07
2019-03-10T08:40:23.038Z,994.08
2019-03-10T08:41:23.308Z,994.08
2019-03-10T08:42:23.660Z,994.07
2019-03-10T08:43:23.984Z,994.06
2019-03-10T08:44:24.303Z,994.04
2019-03-10T08:45:24.417Z,994.03
2019-03-10T08:46:24.811Z,994.00
2019-03-10T08:47:24.921Z,993.96
2019-03-10T08:48:24.899Z,993.96
2019-03-10T08:49:25.481Z,993.95
2019-03-10T08:50:25.600Z,993.94
2019-03-10T08:51:26.086Z,993.94
2019-03-10T08:52:26.439Z,993.93
2019-03-10T08:53:26.514Z,993.86
2019-03-10T08:54:26.899Z,993.85
2019-03-10T08:55:26.927Z,993.84
2019-03-10T08:56:27.274Z,993.85
2019-03-10T08:57:27.328Z,993.84
2019-03-10T08:58:27.850Z,993.84
2019-03-10T08:59:28.300Z,993.83
2019-03-10T09:00:28.450Z,993.82
2019-03-10T09:02:28.990Z,993.81
2019-03-10T09:03:29.222Z,993.79
2019-03-10T09:04:29.563Z,993.80
2019-03-10T09:05:29.807Z,993.78
2019-03-10T09:06:29.931Z,993.77
2019-03-10T09:07:30.145Z,993.77
2019-03-10T09:08:30.272Z,993.77
2019-03-10T09:09:30.678Z,993.79
2019-03-10T09:10:31.205Z,993.79
2019-03-10T09:11:31.614Z,993.77
2019-03-10T09:12:31.936Z,993.75
2019-03-10T09:13:32.351Z,993.71
2019-03-10T09:14:32.613Z,993.69
2019-03-10T09:15:33.008Z,993.68
2019-03-10T09:16:33.242Z,993.53
2019-03-10T09:17:33.560Z,993.55
2019-03-10T09:18:34.010Z,993.56
2019-03-10T09:19:34.191Z,993.59
2019-03-10T09:20:34.577Z,993.56
2019-03-10T09:21:35.088Z,993.54
2019-03-10T09:22:35.482Z,993.53
2019-03-10T09:23:36.223Z,993.52
2019-03-10T09:24:36.185Z,993.52
2019-03-10T09:25:36.479Z,993.51
2019-03-10T09:26:36.811Z,993.56
2019-03-10T09:27:37.201Z,993.55
2019-03-10T09:28:37.544Z,993.52
2019-03-10T09:29:37.929Z,993.52
2019-03-10T09:30:37.899Z,993.49
2019-03-10T09:31:37.929Z,993.46
2019-03-10T09:32:38.226Z,993.35
2019-03-10T09:33:38.491Z,993.39
2019-03-10T09:34:38.712Z,993.36
2019-03-10T09:35:38.887Z,993.27
2019-03-10T09:36:38.783Z,993.25
2019-03-10T09:37:39.286Z,993.22
2019-03-10T09:38:39.088Z,993.21
2019-03-10T09:39:39.754Z,993.16
2019-03-10T09:40:39.982Z,993.20
2019-03-10T09:41:40.323Z,993.19
2019-03-10T09:42:40.699Z,993.21
2019-03-10T09:43:41.304Z,993.19
2019-03-10T09:44:41.116Z,993.10
2019-03-10T09:45:41.487Z,993.08
2019-03-10T09:46:41.840Z,993.08
2019-03-10T09:47:42.147Z,993.08
2019-03-10T09:48:42.320Z,993.06
2019-03-10T09:49:42.245Z,992.88
2019-03-10T09:50:42.575Z,992.92
2019-03-10T09:51:42.790Z,992.89
2019-03-10T09:52:43.111Z,992.87
2019-03-10T09:53:43.282Z,992.87
2019-03-10T09:54:43.452Z,992.90
2019-03-10T09:55:43.947Z,992.93
2019-03-10T09:56:44.226Z,992.89
2019-03-10T09:57:44.339Z,992.82
2019-03-10T09:58:44.608Z,992.81
2019-03-10T09:59:45.101Z,992.71
2019-03-10T10:00:45.120Z,992.71
2019-03-10T10:01:45.410Z,992.73
2019-03-10T10:02:45.891Z,992.73
2019-03-10T10:03:46.343Z,992.70
2019-03-10T10:04:46.681Z,992.68
2019-03-10T10:05:46.897Z,992.68
2019-03-10T10:06:47.246Z,992.67
2019-03-10T10:07:47.822Z,992.54
2019-03-10T10:08:47.724Z,992.54
2019-03-10T10:09:48.229Z,992.46
2019-03-10T10:10:48.633Z,992.50
2019-03-10T10:11:48.553Z,992.52
2019-03-10T10:12:48.821Z,992.49
2019-03-10T10:13:49.174Z,992.47
2019-03-10T10:14:49.392Z,992.45
2019-03-10T10:15:49.804Z,992.48
2019-03-10T10:16:50.057Z,992.45
2019-03-10T10:17:50.091Z,992.45
2019-03-10T10:18:50.556Z,992.52
2019-03-10T10:19:50.554Z,992.33
2019-03-10T10:20:51.038Z,992.41
2019-03-10T10:21:51.384Z,992.42
2019-03-10T10:22:51.388Z,992.45
2019-03-10T10:23:51.969Z,992.44
2019-03-10T10:24:51.905Z,992.32
2019-03-10T10:25:52.396Z,992.45
2019-03-10T10:26:52.807Z,992.43
2019-03-10T10:27:52.875Z,992.31
2019-03-10T10:29:53.260Z,992.29
2019-03-10T10:30:53.088Z,992.44
2019-03-10T10:31:53.501Z,992.40
2019-03-10T10:32:53.802Z,992.54
2019-03-10T10:33:53.813Z,992.41
2019-03-10T10:34:54.111Z,992.46
2019-03-10T10:35:54.670Z,992.41
2019-03-10T10:36:55.016Z,992.32
2019-03-10T10:37:55.114Z,992.33
2019-03-10T10:38:55.599Z,992.34
2019-03-10T10:39:55.595Z,992.40
2019-03-10T10:40:55.875Z,992.44
2019-03-10T10:41:56.197Z,992.39
2019-03-10T10:42:56.645Z,992.47
2019-03-10T10:43:56.792Z,992.33
2019-03-10T10:44:57.103Z,992.37
2019-03-10T10:45:57.500Z,992.40
2019-03-10T10:46:57.392Z,992.51
2019-03-10T10:47:57.541Z,992.31
2019-03-10T10:48:58.040Z,992.33
2019-03-10T10:49:58.235Z,992.40
2019-03-10T10:50:58.503Z,992.47
2019-03-10T10:51:58.859Z,992.40
2019-03-10T10:52:59.322Z,992.42
2019-03-10T10:53:59.547Z,992.42
2019-03-10T10:54:59.705Z,992.43
2019-03-10T10:55:59.763Z,992.59
2019-03-10T10:57:00.311Z,992.32
2019-03-10T10:58:00.374Z,992.45
2019-03-10T10:59:00.770Z,992.54
2019-03-10T11:00:01.431Z,992.56
2019-03-10T11:01:01.315Z,992.57
2019-03-10T11:02:01.312Z,992.50
2019-03-10T11:03:01.721Z,992.45
2019-03-10T11:04:01.868Z,992.66
2019-03-10T11:05:01.866Z,992.44
2019-03-10T11:06:02.085Z,992.35
2019-03-10T11:07:02.529Z,992.29
2019-03-10T11:08:02.682Z,992.38
2019-03-10T11:09:03.210Z,992.51
2019-03-10T11:10:03.021Z,992.39
2019-03-10T11:11:03.264Z,992.54
2019-03-10T11:12:03.528Z,992.51
2019-03-10T11:13:03.906Z,992.46
2019-03-10T11:15:04.053Z,992.45
2019-03-10T11:16:04.449Z,992.43
2019-03-10T11:17:04.771Z,992.34
2019-03-10T11:18:09.477Z,992.36
2019-03-10T11:19:05.250Z,992.44
2019-03-10T11:20:05.747Z,992.46
2019-03-10T11:21:05.769Z,992.32
2019-03-10T11:22:06.340Z,992.37
2019-03-10T11:23:06.698Z,992.46
2019-03-10T11:24:06.904Z,992.29
2019-03-10T11:25:07.978Z,992.30
2019-03-10T11:26:08.549Z,992.41
2019-03-10T11:27:07.587Z,992.36
2019-03-10T11:28:07.938Z,992.31
2019-03-10T11:29:08.310Z,992.34
2019-03-10T11:30:15.887Z,992.32
2019-03-10T11:31:08.869Z,992.24
2019-03-10T11:32:09.330Z,992.20
2019-03-10T11:33:09.464Z,992.28
2019-03-10T11:34:09.772Z,992.34
2019-03-10T11:36:10.303Z,992.39
2019-03-10T11:37:10.343Z,992.41
2019-03-10T11:38:10.683Z,992.41
2019-03-10T11:39:10.966Z,992.43
2019-03-10T11:40:11.124Z,992.24
2019-03-10T11:41:11.355Z,992.27
2019-03-10T11:42:11.595Z,992.33
2019-03-10T11:43:11.950Z,992.28
2019-03-10T11:44:12.297Z,992.17
2019-03-10T11:45:12.683Z,992.18
2019-03-10T11:46:13.086Z,992.15
2019-03-10T11:47:13.404Z,992.38
2019-03-10T11:48:13.678Z,992.23
2019-03-10T11:49:13.773Z,992.12
2019-03-10T11:50:15.243Z,992.18
2019-03-10T11:51:16.314Z,992.21
2019-03-10T11:52:14.567Z,992.16
2019-03-10T11:53:19.402Z,992.23
2019-03-10T11:54:15.338Z,992.03
2019-03-10T11:55:15.498Z,992.00
2019-03-10T11:56:15.568Z,991.91
2019-03-10T11:57:16.024Z,991.99
2019-03-10T11:58:16.342Z,992.07
2019-03-10T11:59:16.794Z,992.19
2019-03-10T12:00:17.210Z,992.01
2019-03-10T12:01:17.292Z,992.02
2019-03-10T12:02:17.566Z,992.13
2019-03-10T12:03:17.741Z,992.16
2019-03-10T12:04:17.901Z,991.77
2019-03-10T12:05:18.301Z,991.88
2019-03-10T12:06:18.336Z,991.75
2019-03-10T12:07:18.312Z,991.84
2019-03-10T12:08:18.451Z,992.00
2019-03-10T12:09:18.528Z,991.93
2019-03-10T12:10:18.621Z,992.05
2019-03-10T12:11:18.790Z,991.94
2019-03-10T12:13:18.870Z,992.26
2019-03-10T12:14:19.023Z,992.25
2019-03-10T12:15:19.526Z,992.30
2019-03-10T12:16:19.752Z,992.67
2019-03-10T12:17:19.887Z,992.54
2019-03-10T12:18:20.034Z,992.45
2019-03-10T12:19:20.150Z,992.41
2019-03-10T12:20:20.205Z,992.36
2019-03-10T12:21:22.520Z,992.32
2019-03-10T12:22:20.534Z,992.32
2019-03-10T12:23:22.833Z,992.16
2019-03-10T12:24:21.029Z,992.20
2019-03-10T12:25:21.233Z,991.99
2019-03-10T12:26:21.465Z,992.15
2019-03-10T12:27:21.614Z,992.08
2019-03-10T12:28:21.773Z,992.00
2019-03-10T12:29:21.988Z,992.33
2019-03-10T12:30:22.006Z,992.58
2019-03-10T12:31:22.235Z,992.52
2019-03-10T12:32:22.460Z,992.55
2019-03-10T12:33:22.579Z,992.47
2019-03-10T12:34:22.634Z,992.46
2019-03-10T12:35:33.541Z,992.42
2019-03-10T12:37:23.031Z,992.41